Flight Track Log - Related Links

Times and Time Zones

All times are in EDT time to prevent confusion due to time zone crossing. See the TAM8090 flight status page for this flight to view local times or setup timezone preferences in your user account.

Time Position Orientation Groundspeed Altitude Reporting Facility
EDT Latitude Longitude Course Direction KTS MPH feet Rate Location/Type
Mon 11:20:47 PM -23.4380 -46.3990 73° East 201 231 4,400  Level FlightAware ADS-B
Mon 11:21:12 PM -23.4590 -46.4070 199° South 197 227 5,300 2,100 Climbing FlightAware ADS-B
Mon 11:21:27 PM -23.4640 -46.4220 250° West 194 223 5,800 2,000 Climbing FlightAware ADS-B
Mon 11:21:57 PM -23.4780 -46.4470 239° Southwest 198 228 6,800 1,636 Climbing FlightAware ADS-B
Mon 11:22:22 PM -23.4950 -46.4650 224° Southwest 207 238 7,300 982 Climbing FlightAware ADS-B
Mon 11:22:52 PM -23.5210 -46.4860 217° Southwest 242 278 7,700 982 Climbing FlightAware ADS-B
Mon 11:23:17 PM -23.5460 -46.5060 216° Southwest 269 310 8,200 1,745 Climbing FlightAware ADS-B
Mon 11:23:47 PM -23.5750 -46.5320 219° Southwest 272 313 9,300 2,133 Climbing FlightAware ADS-B
Mon 11:24:02 PM -23.5830 -46.5460 238° Southwest 269 310 9,800 2,400 Climbing FlightAware ADS-B
Mon 11:24:17 PM -23.5860 -46.5720 263° West 272 313 10,500 1,200 Climbing FlightAware ADS-B
Mon 11:24:57 PM -23.5830 -46.6060 275° West 299 344 10,900 900 Climbing FlightAware ADS-B
Mon 11:25:37 PM -23.5760 -46.6770 276° West 341 392 11,700 1,553 Climbing FlightAware ADS-B
Mon 11:26:22 PM -23.5680 -46.7570 276° West 366 421 13,100 2,118 Climbing FlightAware ADS-B
Mon 11:27:02 PM -23.5600 -46.8340 276° West 375 432 14,700 2,400 Climbing FlightAware ADS-B
Mon 11:27:42 PM -23.5530 -46.9130 276° West 384 442 16,300 2,188 Climbing FlightAware ADS-B
Mon 11:28:27 PM -23.5450 -46.9930 276° West 393 452 17,800 2,025 Climbing FlightAware ADS-B
Mon 11:29:02 PM -23.5380 -47.0650 276° West 402 463 19,000 1,765 Climbing FlightAware ADS-B
Mon 11:29:52 PM -23.5280 -47.1670 276° West 421 484 20,300 1,765 Climbing FlightAware ADS-B
Mon 11:30:27 PM -23.5200 -47.2470 276° West 428 493 21,500 2,188 Climbing FlightAware ADS-B
Mon 11:31:17 PM -23.5090 -47.3510 277° West 426 490 23,400 2,118 Climbing FlightAware ADS-B
Mon 11:31:52 PM -23.4770 -47.4230 296° West 436 502 24,500 2,080 Climbing FlightAware ADS-B
Mon 11:32:32 PM -23.4310 -47.4920 306° West 433 498 26,000 2,000 Climbing FlightAware ADS-B
Mon 11:33:22 PM -23.3540 -47.6020 307° West 438 504 27,500 1,579 Climbing FlightAware ADS-B
Mon 11:34:07 PM -23.2990 -47.6830 306° West 445 512 28,500 1,412 Climbing FlightAware ADS-B
Mon 11:34:47 PM -23.2500 -47.7560 306° West 448 516 29,500 1,765 Climbing FlightAware ADS-B
Mon 11:35:32 PM -23.1930 -47.8390 307° West 440 506 31,000 1,920 Climbing FlightAware ADS-B
Mon 11:36:02 PM -23.1590 -47.8890 306° West 439 505 31,900 750 Climbing FlightAware ADS-B
Mon 11:36:52 PM -23.0980 -47.9770 307° West 434 499 32,000 63 Climbing FlightAware ADS-B
Mon 11:37:37 PM -23.0430 -48.0580 306° West 431 496 32,000  Level FlightAware ADS-B
Mon 11:38:17 PM -22.9950 -48.1270 307° West 432 497 32,000  Level FlightAware ADS-B
Mon 11:38:57 PM -22.9480 -48.1950 307° West 433 498 32,000  Level FlightAware ADS-B
Mon 11:39:42 PM -22.8940 -48.2740 307° West 433 498 32,000  Level FlightAware ADS-B
Mon 11:40:22 PM -22.8460 -48.3430 307° West 431 496 32,000  Level FlightAware ADS-B
Mon 11:41:07 PM -22.7920 -48.4220 307° West 429 494 32,000  Level FlightAware ADS-B
Mon 11:41:47 PM -22.7440 -48.4910 307° West 429 494 32,000  Level FlightAware ADS-B
Mon 11:42:32 PM -22.6910 -48.5670 307° West 429 494 32,000  Level FlightAware ADS-B
Mon 11:43:07 PM -22.6480 -48.6290 307° West 430 495 32,000  Level FlightAware ADS-B
Mon 11:43:52 PM -22.5950 -48.7050 307° West 432 497 32,000  Level FlightAware ADS-B
Mon 11:44:37 PM -22.5390 -48.7850 307° West 435 501 32,000  Level FlightAware ADS-B
Mon 11:45:17 PM -22.4930 -48.8520 307° West 434 499 32,000  Level FlightAware ADS-B
Mon 11:45:57 PM -22.4420 -48.9250 307° West 434 499 32,000  Level FlightAware ADS-B
Mon 11:46:42 PM -22.3880 -49.0020 307° West 432 497 32,000  Level FlightAware ADS-B
Mon 11:47:22 PM -22.3400 -49.0710 307° West 432 497 32,000  Level FlightAware ADS-B
Mon 11:48:07 PM -22.2830 -49.1420 311° West 434 499 32,000  Level FlightAware ADS-B
Mon 11:48:47 PM -22.2240 -49.2080 314° West 435 501 32,000  Level FlightAware ADS-B
Mon 11:49:27 PM -22.1680 -49.2710 314° West 436 502 32,000  Level FlightAware ADS-B
Mon 11:50:12 PM -22.1060 -49.3390 315° West 435 501 32,000  Level FlightAware ADS-B
Mon 11:50:52 PM -22.0500 -49.4020 314° West 433 498 32,000  Level FlightAware ADS-B
Mon 11:51:37 PM -21.9860 -49.4740 314° West 431 496 32,000  Level FlightAware ADS-B
Mon 11:52:17 PM -21.9310 -49.5350 314° West 430 495 32,000  Level FlightAware ADS-B
Mon 11:53:02 PM -21.8700 -49.6020 314° West 431 496 32,000  Level FlightAware ADS-B
Mon 11:53:42 PM -21.8140 -49.6650 314° West 432 497 32,000  Level FlightAware ADS-B
Mon 11:54:22 PM -21.7590 -49.7260 314° West 434 499 32,000  Level FlightAware ADS-B
Mon 11:55:07 PM -21.6960 -49.7950 314° West 435 501 32,000  Level FlightAware ADS-B
Mon 11:55:42 PM -21.6480 -49.8480 314° West 436 502 32,000  Level FlightAware ADS-B
Mon 11:56:32 PM -21.5760 -49.9290 314° West 437 503 32,000  Level FlightAware ADS-B
Mon 11:57:12 PM -21.5200 -49.9900 315° West 437 503 32,000  Level FlightAware ADS-B
Mon 11:57:52 PM -21.4620 -50.0540 314° West 437 503 32,000  Level FlightAware ADS-B
Mon 11:58:37 PM -21.3980 -50.1250 314° West 437 503 32,000  Level FlightAware ADS-B
Mon 11:59:17 PM -21.3430 -50.1870 314° West 437 503 32,000  Level FlightAware ADS-B
Tue 12:00:02 AM -21.2800 -50.2560 314° West 437 503 32,000  Level FlightAware ADS-B
Tue 12:00:32 AM -21.2410 -50.2990 314° West 436 502 32,000  Level FlightAware ADS-B
Tue 12:01:22 AM -21.1690 -50.3790 314° West 435 501 32,000  Level FlightAware ADS-B
Tue 12:02:07 AM -21.1030 -50.4520 314° West 436 502 32,000  Level FlightAware ADS-B
Tue 12:02:47 AM -21.0480 -50.5130 314° West 437 503 32,000  Level FlightAware ADS-B
Tue 12:03:32 AM -20.9860 -50.5820 314° West 436 502 32,000  Level FlightAware ADS-B
Tue 12:04:12 AM -20.9270 -50.6460 315° West 437 503 32,000  Level FlightAware ADS-B
Tue 12:04:52 AM -20.8740 -50.7050 314° West 436 502 32,000  Level FlightAware ADS-B
Tue 12:05:32 AM -20.8190 -50.7640 315° West 437 503 32,000  Level FlightAware ADS-B
Tue 12:06:27 AM -20.7430 -50.8470 314° West 437 503 32,000  Level FlightAware ADS-B
Tue 12:07:07 AM -20.6950 -50.9000 314° West 437 503 32,000  Level FlightAware ADS-B
Tue 12:07:47 AM -20.6470 -50.9530 314° West 437 503 32,000  Level FlightAware ADS-B
Tue 12:08:37 AM -20.5870 -51.0190 314° West 437 503 32,000  Level FlightAware ADS-B
Tue 12:09:17 AM -20.5400 -51.0710 314° West 437 503 32,000  Level FlightAware ADS-B
Tue 12:09:57 AM -20.4920 -51.1240 314° West 437 503 32,000  Level FlightAware ADS-B
Tue 12:10:37 AM -20.4440 -51.1770 314° West 437 503 32,000  Level FlightAware ADS-B
Tue 12:11:27 AM -20.3840 -51.2430 314° West 437 503 32,000  Level FlightAware ADS-B
Tue 12:12:07 AM -20.3370 -51.2960 313° West 437 503 32,000  Level FlightAware ADS-B
Tue 12:12:47 AM -20.2890 -51.3480 315° West 437 503 32,000  Level FlightAware ADS-B
Tue 12:13:27 AM -20.2410 -51.4010 314° West 437 503 32,000  Level FlightAware ADS-B
Tue 12:14:07 AM -20.1930 -51.4540 314° West 437 503 32,000  Level FlightAware ADS-B
Tue 12:14:57 AM -20.1340 -51.5200 314° West 437 503 32,000  Level FlightAware ADS-B
Tue 12:15:37 AM -20.0860 -51.5720 315° West 437 503 32,000 11 Level FlightAware ADS-B
Tue 12:18:00 AM -19.8300 -51.7451 328° Northwest  Level Estimated
Tue 12:19:00 AM -19.7225 -51.8176 328° Northwest  Level Estimated
Tue 12:20:00 AM -19.6150 -51.8900 328° Northwest  Level Estimated
Tue 12:21:00 AM -19.5075 -51.9623 328° Northwest  Level Estimated
Tue 12:22:00 AM -19.3999 -52.0345 328° Northwest  Level Estimated
Tue 12:23:00 AM -19.2923 -52.1065 328° Northwest  Level Estimated
Tue 12:24:00 AM -19.1847 -52.1786 328° Northwest  Level Estimated
Tue 12:25:00 AM -19.0770 -52.2505 328° Northwest  Level Estimated
Tue 12:26:00 AM -18.9694 -52.3223 328° Northwest  Level Estimated
Tue 12:27:00 AM -18.8617 -52.3940 328° Northwest  Level Estimated
Tue 12:28:00 AM -18.7539 -52.4656 328° Northwest  Level Estimated
Tue 12:29:00 AM -18.6462 -52.5371 328° Northwest  Level Estimated
Tue 12:30:00 AM -18.5384 -52.6086 328° Northwest  Level Estimated
Tue 12:31:00 AM -18.4306 -52.6799 328° Northwest  Level Estimated
Tue 12:32:00 AM -18.3228 -52.7512 328° Northwest  Level Estimated
Tue 12:33:00 AM -18.2149 -52.8223 328° Northwest  Level Estimated
Tue 12:34:00 AM -18.1070 -52.8934 328° Northwest  Level Estimated
Tue 12:35:00 AM -17.9991 -52.9644 328° Northwest  Level Estimated
Tue 12:36:00 AM -17.8911 -53.0354 328° Northwest  Level Estimated
Tue 12:37:00 AM -17.7832 -53.1062 328° Northwest  Level Estimated
Tue 12:38:00 AM -17.6752 -53.1769 328° Northwest  Level Estimated
Tue 12:39:00 AM -17.5672 -53.2476 328° Northwest  Level Estimated
Tue 12:40:00 AM -17.4591 -53.3181 328° Northwest  Level Estimated
Tue 12:41:00 AM -17.3510 -53.3886 328° Northwest  Level Estimated
Tue 12:42:00 AM -17.2430 -53.4590 328° Northwest  Level Estimated
Tue 12:43:00 AM -17.1348 -53.5294 328° Northwest  Level Estimated
Tue 12:44:00 AM -17.0267 -53.5996 328° Northwest  Level Estimated
Tue 12:45:00 AM -16.9185 -53.6698 328° Northwest  Level Estimated
Tue 12:46:00 AM -16.8103 -53.7398 328° Northwest  Level Estimated
Tue 12:47:00 AM -16.7021 -53.8098 328° Northwest  Level Estimated
Tue 12:48:00 AM -16.5939 -53.8797 328° Northwest  Level Estimated
Tue 12:49:00 AM -16.4856 -53.9496 328° Northwest  Level Estimated
Tue 12:50:00 AM -16.3773 -54.0193 328° Northwest  Level Estimated
Tue 12:51:00 AM -16.2690 -54.0890 328° Northwest  Level Estimated
Tue 12:52:00 AM -16.1607 -54.1586 328° Northwest  Level Estimated
Tue 12:53:00 AM -16.0524 -54.2282 328° Northwest  Level Estimated
Tue 12:54:00 AM -15.9440 -54.2976 328° Northwest  Level Estimated
Tue 12:55:00 AM -15.8356 -54.3670 328° Northwest  Level Estimated
Tue 12:56:00 AM -15.7272 -54.4363 328° Northwest  Level Estimated
Tue 12:57:00 AM -15.6187 -54.5056 328° Northwest  Level Estimated
Tue 12:58:00 AM -15.5103 -54.5747 328° Northwest  Level Estimated
Tue 12:59:00 AM -15.4018 -54.6438 328° Northwest  Level Estimated
Tue 01:00:00 AM -15.2933 -54.7128 328° Northwest  Level Estimated
Tue 01:01:00 AM -15.1848 -54.7817 328° Northwest  Level Estimated
Tue 01:02:00 AM -15.0762 -54.8506 329° Northwest  Level Estimated
Tue 01:03:00 AM -14.9676 -54.9194 329° Northwest  Level Estimated
Tue 01:04:00 AM -14.8590 -54.9882 329° Northwest  Level Estimated
Tue 01:05:00 AM -14.7504 -55.0568 329° Northwest  Level Estimated
Tue 01:06:00 AM -14.6418 -55.1254 329° Northwest  Level Estimated
Tue 01:07:00 AM -14.5332 -55.1939 329° Northwest  Level Estimated
Tue 01:08:00 AM -14.4245 -55.2624 329° Northwest  Level Estimated
Tue 01:09:00 AM -14.3158 -55.3308 329° Northwest  Level Estimated
Tue 01:10:00 AM -14.2071 -55.3991 329° Northwest  Level Estimated
Tue 01:11:00 AM -14.0984 -55.4674 329° Northwest  Level Estimated
Tue 01:12:00 AM -13.9896 -55.5356 329° Northwest  Level Estimated
Tue 01:13:00 AM -13.8808 -55.6037 329° Northwest  Level Estimated
Tue 01:14:00 AM -13.7721 -55.6718 329° Northwest  Level Estimated
Tue 01:15:00 AM -13.6633 -55.7398 329° Northwest  Level Estimated
Tue 01:16:00 AM -13.5544 -55.8077 329° Northwest  Level Estimated
Tue 01:17:00 AM -13.4456 -55.8756 329° Northwest  Level Estimated
Tue 01:18:00 AM -13.3367 -55.9434 329° Northwest  Level Estimated
Tue 01:19:00 AM -13.2279 -56.0112 329° Northwest  Level Estimated
Tue 01:20:00 AM -13.1190 -56.0789 329° Northwest  Level Estimated
Tue 01:21:00 AM -13.0101 -56.1465 329° Northwest  Level Estimated
Tue 01:22:00 AM -12.9011 -56.2141 329° Northwest  Level Estimated
Tue 01:23:00 AM -12.7922 -56.2816 329° Northwest  Level Estimated
Tue 01:24:00 AM -12.6832 -56.3491 329° Northwest  Level Estimated
Tue 01:25:00 AM -12.5742 -56.4165 329° Northwest  Level Estimated
Tue 01:26:00 AM -12.4652 -56.4838 329° Northwest  Level Estimated
Tue 01:27:00 AM -12.3562 -56.5511 329° Northwest  Level Estimated
Tue 01:28:00 AM -12.2472 -56.6183 329° Northwest  Level Estimated
Tue 01:29:00 AM -12.1382 -56.6855 329° Northwest  Level Estimated
Tue 01:30:00 AM -12.0291 -56.7526 329° Northwest  Level Estimated
Tue 01:31:00 AM -11.9200 -56.8197 329° Northwest  Level Estimated
Tue 01:32:00 AM -11.8109 -56.8867 329° Northwest  Level Estimated
Tue 01:33:00 AM -11.7018 -56.9537 329° Northwest  Level Estimated
Tue 01:34:00 AM -11.5927 -57.0206 329° Northwest  Level Estimated
Tue 01:35:00 AM -11.4835 -57.0874 329° Northwest  Level Estimated
Tue 01:36:00 AM -11.3744 -57.1542 329° Northwest  Level Estimated
Tue 01:37:00 AM -11.2652 -57.2210 329° Northwest  Level Estimated
Tue 01:38:00 AM -11.1560 -57.2877 329° Northwest  Level Estimated
Tue 01:39:00 AM -11.0468 -57.3543 329° Northwest  Level Estimated
Tue 01:40:00 AM -10.9376 -57.4209 329° Northwest  Level Estimated
Tue 01:41:00 AM -10.8284 -57.4875 329° Northwest  Level Estimated
Tue 01:42:00 AM -10.7191 -57.5540 329° Northwest  Level Estimated
Tue 01:43:00 AM -10.6099 -57.6204 329° Northwest  Level Estimated
Tue 01:44:00 AM -10.5006 -57.6869 329° Northwest  Level Estimated
Tue 01:45:00 AM -10.3913 -57.7532 329° Northwest  Level Estimated
Tue 01:46:00 AM -10.2820 -57.8195 329° Northwest  Level Estimated
Tue 01:47:00 AM -10.1727 -57.8858 329° Northwest  Level Estimated
Tue 01:48:00 AM -10.0634 -57.9520 329° Northwest  Level Estimated
Tue 01:49:00 AM -9.9540 -58.0182 329° Northwest  Level Estimated
Tue 01:50:00 AM -9.8447 -58.0843 329° Northwest  Level Estimated
Tue 01:51:00 AM -9.7353 -58.1504 329° Northwest  Level Estimated
Tue 01:52:00 AM -9.6259 -58.2165 329° Northwest  Level Estimated
Tue 01:53:00 AM -9.5165 -58.2825 329° Northwest  Level Estimated
Tue 01:54:00 AM -9.4071 -58.3484 329° Northwest  Level Estimated
Tue 01:55:00 AM -9.2977 -58.4143 329° Northwest  Level Estimated
Tue 01:56:00 AM -9.1883 -58.4802 329° Northwest  Level Estimated
Tue 01:57:00 AM -9.0788 -58.5461 329° Northwest  Level Estimated
Tue 01:58:00 AM -8.9694 -58.6119 329° Northwest  Level Estimated
Tue 01:59:00 AM -8.8599 -58.6776 329° Northwest  Level Estimated
Tue 02:00:00 AM -8.7505 -58.7433 329° Northwest  Level Estimated
Tue 02:01:00 AM -8.6410 -58.8090 329° Northwest  Level Estimated
Tue 02:02:00 AM -8.5315 -58.8747 329° Northwest  Level Estimated
Tue 02:03:00 AM -8.4220 -58.9403 329° Northwest  Level Estimated
Tue 02:04:00 AM -8.3125 -59.0058 329° Northwest  Level Estimated
Tue 02:05:00 AM -8.2029 -59.0714 329° Northwest  Level Estimated
Tue 02:06:00 AM -8.0934 -59.1369 329° Northwest  Level Estimated
Tue 02:07:00 AM -7.9838 -59.2023 329° Northwest  Level Estimated
Tue 02:08:00 AM -7.8743 -59.2677 329° Northwest  Level Estimated
Tue 02:09:00 AM -7.7647 -59.3331 329° Northwest  Level Estimated
Tue 02:10:00 AM -7.6551 -59.3985 329° Northwest  Level Estimated
Tue 02:11:00 AM -7.5455 -59.4638 329° Northwest  Level Estimated
Tue 02:12:00 AM -7.4359 -59.5291 329° Northwest  Level Estimated
Tue 02:13:00 AM -7.3263 -59.5944 329° Northwest  Level Estimated
Tue 02:14:00 AM -7.2167 -59.6596 329° Northwest  Level Estimated
Tue 02:15:00 AM -7.1071 -59.7248 329° Northwest  Level Estimated
Tue 02:16:00 AM -6.9974 -59.7899 329° Northwest  Level Estimated
Tue 02:17:00 AM -6.8878 -59.8551 329° Northwest  Level Estimated
Tue 02:18:00 AM -6.7781 -59.9202 329° Northwest  Level Estimated
Tue 02:19:00 AM -6.6685 -59.9852 329° Northwest  Level Estimated
Tue 02:20:00 AM -6.5588 -60.0503 329° Northwest  Level Estimated
Tue 02:21:00 AM -6.4491 -60.1153 330° Northwest  Level Estimated
Tue 02:22:00 AM -6.3394 -60.1803 330° Northwest  Level Estimated
Tue 02:23:00 AM -6.2297 -60.2452 330° Northwest  Level Estimated
Tue 02:24:00 AM -6.1200 -60.3102 330° Northwest  Level Estimated
Tue 02:25:00 AM -6.0103 -60.3751 330° Northwest  Level Estimated
Tue 02:26:00 AM -5.9006 -60.4399 330° Northwest  Level Estimated
Tue 02:27:00 AM -5.7909 -60.5048 330° Northwest  Level Estimated
Tue 02:28:00 AM -5.6811 -60.5696 330° Northwest  Level Estimated
Tue 02:29:00 AM -5.5714 -60.6344 330° Northwest  Level Estimated
Tue 02:30:00 AM -5.4616 -60.6992 330° Northwest  Level Estimated
Tue 02:31:00 AM -5.3519 -60.7640 330° Northwest  Level Estimated
Tue 02:32:00 AM -5.2421 -60.8287 330° Northwest  Level Estimated
Tue 02:33:00 AM -5.1323 -60.8934 330° Northwest  Level Estimated
Tue 02:34:00 AM -5.0226 -60.9581 330° Northwest  Level Estimated
Tue 02:35:00 AM -4.9128 -61.0228 330° Northwest  Level Estimated
Tue 02:36:00 AM -4.8030 -61.0874 330° Northwest  Level Estimated
Tue 02:37:00 AM -4.6932 -61.1520 330° Northwest  Level Estimated
Tue 02:38:00 AM -4.5834 -61.2166 330° Northwest  Level Estimated
Tue 02:39:00 AM -4.4736 -61.2812 330° Northwest  Level Estimated
Tue 02:40:00 AM -4.3638 -61.3457 330° Northwest  Level Estimated
Tue 02:41:00 AM -4.2539 -61.4103 330° Northwest  Level Estimated
Tue 02:42:00 AM -4.1441 -61.4748 330° Northwest  Level Estimated
Tue 02:43:00 AM -4.0343 -61.5393 330° Northwest  Level Estimated
Tue 02:44:00 AM -3.9245 -61.6038 330° Northwest  Level Estimated
Tue 02:45:00 AM -3.8146 -61.6683 330° Northwest  Level Estimated
Tue 02:46:00 AM -3.7048 -61.7327 330° Northwest  Level Estimated
Tue 02:47:00 AM -3.5949 -61.7972 330° Northwest  Level Estimated
Tue 02:48:00 AM -3.4851 -61.8616 330° Northwest  Level Estimated
Tue 02:49:00 AM -3.3752 -61.9260 330° Northwest  Level Estimated
Tue 02:50:00 AM -3.2654 -61.9904 330° Northwest  Level Estimated
Tue 02:51:00 AM -3.1555 -62.0548 330° Northwest  Level Estimated
Tue 02:52:00 AM -3.0456 -62.1192 330° Northwest  Level Estimated
Tue 02:53:00 AM -2.9358 -62.1835 330° Northwest  Level Estimated
Tue 02:54:00 AM -2.8259 -62.2479 330° Northwest  Level Estimated
Tue 02:55:00 AM -2.7160 -62.3122 330° Northwest  Level Estimated
Tue 02:56:00 AM -2.6061 -62.3765 330° Northwest  Level Estimated
Tue 02:57:00 AM -2.4962 -62.4408 330° Northwest  Level Estimated
Tue 02:58:00 AM -2.3863 -62.5051 330° Northwest  Level Estimated
Tue 02:59:00 AM -2.2764 -62.5694 330° Northwest  Level Estimated
Tue 03:00:00 AM -2.1665 -62.6337 330° Northwest  Level Estimated
Tue 03:01:00 AM -2.0566 -62.6980 330° Northwest  Level Estimated
Tue 03:02:00 AM -1.9467 -62.7622 330° Northwest  Level Estimated
Tue 03:03:00 AM -1.8368 -62.8265 330° Northwest  Level Estimated
Tue 03:04:00 AM -1.7269 -62.8907 330° Northwest  Level Estimated
Tue 03:05:00 AM -1.6170 -62.9550 330° Northwest  Level Estimated
Tue 03:06:00 AM -1.5071 -63.0192 330° Northwest  Level Estimated
Tue 03:07:00 AM -1.3972 -63.0834 330° Northwest  Level Estimated
Tue 03:08:00 AM -1.2873 -63.1476 330° Northwest  Level Estimated
Tue 03:09:00 AM -1.1774 -63.2118 330° Northwest  Level Estimated
Tue 03:10:00 AM -1.0675 -63.2760 330° Northwest  Level Estimated
Tue 03:11:00 AM -0.9575 -63.3402 330° Northwest  Level Estimated
Tue 03:12:00 AM -0.8476 -63.4044 330° Northwest  Level Estimated
Tue 03:13:00 AM -0.7377 -63.4686 330° Northwest  Level Estimated
Tue 03:14:00 AM -0.6278 -63.5328 330° Northwest  Level Estimated
Tue 03:15:00 AM -0.5178 -63.5970 330° Northwest  Level Estimated
Tue 03:16:00 AM -0.4079 -63.6612 330° Northwest  Level Estimated
Tue 03:17:00 AM -0.2980 -63.7254 330° Northwest  Level Estimated
Tue 03:18:00 AM -0.1881 -63.7896 330° Northwest  Level Estimated
Tue 03:19:00 AM -0.0782 -63.8537 330° Northwest  Level Estimated
Tue 03:20:00 AM 0.0318 -63.9179 330° Northwest  Level Estimated
Tue 03:21:00 AM 0.1417 -63.9821 330° Northwest  Level Estimated
Tue 03:22:00 AM 0.2516 -64.0463 330° Northwest  Level Estimated
Tue 03:23:00 AM 0.3615 -64.1105 330° Northwest  Level Estimated
Tue 03:24:00 AM 0.4714 -64.1746 330° Northwest  Level Estimated
Tue 03:25:00 AM 0.5814 -64.2388 330° Northwest  Level Estimated
Tue 03:26:00 AM 0.6913 -64.3030 330° Northwest  Level Estimated
Tue 03:27:00 AM 0.8012 -64.3672 330° Northwest  Level Estimated
Tue 03:28:00 AM 0.9111 -64.4314 330° Northwest  Level Estimated
Tue 03:29:00 AM 1.0210 -64.4956 330° Northwest  Level Estimated
Tue 03:30:00 AM 1.1309 -64.5598 330° Northwest  Level Estimated
Tue 03:31:00 AM 1.2409 -64.6240 330° Northwest  Level Estimated
Tue 03:32:00 AM 1.3508 -64.6882 330° Northwest  Level Estimated
Tue 03:33:00 AM 1.4607 -64.7524 330° Northwest  Level Estimated
Tue 03:34:00 AM 1.5706 -64.8167 330° Northwest  Level Estimated
Tue 03:35:00 AM 1.6805 -64.8809 330° Northwest  Level Estimated
Tue 03:36:00 AM 1.7904 -64.9451 330° Northwest  Level Estimated
Tue 03:37:00 AM 1.9003 -65.0094 330° Northwest  Level Estimated
Tue 03:38:00 AM 2.0102 -65.0736 330° Northwest  Level Estimated
Tue 03:39:00 AM 2.1201 -65.1379 330° Northwest  Level Estimated
Tue 03:40:00 AM 2.2300 -65.2021 330° Northwest  Level Estimated
Tue 03:41:00 AM 2.3399 -65.2664 330° Northwest  Level Estimated
Tue 03:42:00 AM 2.4498 -65.3307 330° Northwest  Level Estimated
Tue 03:43:00 AM 2.5597 -65.3950 330° Northwest  Level Estimated
Tue 03:44:00 AM 2.6696 -65.4593 330° Northwest  Level Estimated
Tue 03:45:00 AM 2.7795 -65.5237 330° Northwest  Level Estimated
Tue 03:46:00 AM 2.8894 -65.5880 330° Northwest  Level Estimated
Tue 03:47:00 AM 2.9992 -65.6524 330° Northwest  Level Estimated
Tue 03:48:00 AM 3.1091 -65.7167 330° Northwest  Level Estimated
Tue 03:49:00 AM 3.2190 -65.7811 330° Northwest  Level Estimated
Tue 03:50:00 AM 3.3288 -65.8455 330° Northwest  Level Estimated
Tue 03:51:00 AM 3.4387 -65.9099 330° Northwest  Level Estimated
Tue 03:52:00 AM 3.5485 -65.9743 330° Northwest  Level Estimated
Tue 03:53:00 AM 3.6584 -66.0387 330° Northwest  Level Estimated
Tue 03:54:00 AM 3.7682 -66.1032 330° Northwest  Level Estimated
Tue 03:55:00 AM 3.8781 -66.1676 330° Northwest  Level Estimated
Tue 03:56:00 AM 3.9879 -66.2321 330° Northwest  Level Estimated
Tue 03:57:00 AM 4.0978 -66.2966 330° Northwest  Level Estimated
Tue 03:58:00 AM 4.2076 -66.3612 330° Northwest  Level Estimated
Tue 03:59:00 AM 4.3174 -66.4257 330° Northwest  Level Estimated
Tue 04:00:00 AM 4.4272 -66.4902 330° Northwest  Level Estimated
Tue 04:01:00 AM 4.5370 -66.5548 330° Northwest  Level Estimated
Tue 04:02:00 AM 4.6468 -66.6194 330° Northwest  Level Estimated
Tue 04:03:00 AM 4.7566 -66.6840 330° Northwest  Level Estimated
Tue 04:04:00 AM 4.8664 -66.7486 330° Northwest  Level Estimated
Tue 04:05:00 AM 4.9762 -66.8133 330° Northwest  Level Estimated
Tue 04:06:00 AM 5.0860 -66.8780 330° Northwest  Level Estimated
Tue 04:07:00 AM 5.1958 -66.9427 330° Northwest  Level Estimated
Tue 04:08:00 AM 5.3055 -67.0074 330° Northwest  Level Estimated
Tue 04:09:00 AM 5.4153 -67.0722 330° Northwest  Level Estimated
Tue 04:10:00 AM 5.5251 -67.1369 330° Northwest  Level Estimated
Tue 04:11:00 AM 5.6348 -67.2017 330° Northwest  Level Estimated
Tue 04:12:00 AM 5.7445 -67.2665 330° Northwest  Level Estimated
Tue 04:13:00 AM 5.8543 -67.3314 330° Northwest  Level Estimated
Tue 04:14:00 AM 5.9640 -67.3962 330° Northwest  Level Estimated
Tue 04:15:00 AM 6.0737 -67.4611 330° Northwest  Level Estimated
Tue 04:16:00 AM 6.1834 -67.5260 330° Northwest  Level Estimated
Tue 04:17:00 AM 6.2931 -67.5910 330° Northwest  Level Estimated
Tue 04:18:00 AM 6.4028 -67.6560 330° Northwest  Level Estimated
Tue 04:19:00 AM 6.5125 -67.7210 330° Northwest  Level Estimated
Tue 04:20:00 AM 6.6222 -67.7860 330° Northwest  Level Estimated
Tue 04:21:00 AM 6.7318 -67.8511 329° Northwest  Level Estimated
Tue 04:22:00 AM 6.8415 -67.9162 329° Northwest  Level Estimated
Tue 04:23:00 AM 6.9511 -67.9813 329° Northwest  Level Estimated
Tue 04:24:00 AM 7.0608 -68.0464 329° Northwest  Level Estimated
Tue 04:25:00 AM 7.1704 -68.1116 329° Northwest  Level Estimated
Tue 04:26:00 AM 7.2800 -68.1768 329° Northwest  Level Estimated
Tue 04:27:00 AM 7.3896 -68.2421 329° Northwest  Level Estimated
Tue 04:28:00 AM 7.4992 -68.3073 329° Northwest  Level Estimated
Tue 04:29:00 AM 7.6088 -68.3726 329° Northwest  Level Estimated
Tue 04:30:00 AM 7.7184 -68.4380 329° Northwest  Level Estimated
Tue 04:31:00 AM 7.8280 -68.5034 329° Northwest  Level Estimated
Tue 04:32:00 AM 7.9376 -68.5688 329° Northwest  Level Estimated
Tue 04:33:00 AM 8.0471 -68.6342 329° Northwest  Level Estimated
Tue 04:34:00 AM 8.1567 -68.6997 329° Northwest  Level Estimated
Tue 04:35:00 AM 8.2662 -68.7652 329° Northwest  Level Estimated
Tue 04:36:00 AM 8.3757 -68.8308 329° Northwest  Level Estimated
Tue 04:37:00 AM 8.4852 -68.8964 329° Northwest  Level Estimated
Tue 04:38:00 AM 8.5947 -68.9620 329° Northwest  Level Estimated
Tue 04:39:00 AM 8.7042 -69.0276 329° Northwest  Level Estimated
Tue 04:40:00 AM 8.8137 -69.0934 329° Northwest  Level Estimated
Tue 04:41:00 AM 8.9232 -69.1591 329° Northwest  Level Estimated
Tue 04:42:00 AM 9.0326 -69.2249 329° Northwest  Level Estimated
Tue 04:43:00 AM 9.1421 -69.2907 329° Northwest  Level Estimated
Tue 04:44:00 AM 9.2515 -69.3566 329° Northwest  Level Estimated
Tue 04:45:00 AM 9.3609 -69.4224 329° Northwest  Level Estimated
Tue 04:46:00 AM 9.4703 -69.4884 329° Northwest  Level Estimated
Tue 04:47:00 AM 9.5797 -69.5544 329° Northwest  Level Estimated
Tue 04:48:00 AM 9.6891 -69.6204 329° Northwest  Level Estimated
Tue 04:49:00 AM 9.7985 -69.6865 329° Northwest  Level Estimated
Tue 04:50:00 AM 9.9078 -69.7526 329° Northwest  Level Estimated
Tue 04:51:00 AM 10.0172 -69.8188 329° Northwest  Level Estimated
Tue 04:52:00 AM 10.1265 -69.8850 329° Northwest  Level Estimated
Tue 04:53:00 AM 10.2358 -69.9512 329° Northwest  Level Estimated
Tue 04:54:00 AM 10.3451 -70.0175 329° Northwest  Level Estimated
Tue 04:55:00 AM 10.4544 -70.0838 329° Northwest  Level Estimated
Tue 04:56:00 AM 10.5637 -70.1502 329° Northwest  Level Estimated
Tue 04:57:00 AM 10.6730 -70.2167 329° Northwest  Level Estimated
Tue 04:58:00 AM 10.7822 -70.2832 329° Northwest  Level Estimated
Tue 04:59:00 AM 10.8915 -70.3497 329° Northwest  Level Estimated
Tue 05:00:00 AM 11.0007 -70.4163 329° Northwest  Level Estimated
Tue 05:01:00 AM 11.1099 -70.4829 329° Northwest  Level Estimated
Tue 05:02:00 AM 11.2191 -70.5496 329° Northwest  Level Estimated
Tue 05:03:00 AM 11.3283 -70.6163 329° Northwest  Level Estimated
Tue 05:04:00 AM 11.4374 -70.6831 329° Northwest  Level Estimated
Tue 05:05:00 AM 11.5466 -70.7499 329° Northwest  Level Estimated
Tue 05:06:00 AM 11.6557 -70.8168 329° Northwest  Level Estimated
Tue 05:07:00 AM 11.7648 -70.8837 329° Northwest  Level Estimated
Tue 05:08:00 AM 11.8739 -70.9507 329° Northwest  Level Estimated
Tue 05:09:00 AM 11.9830 -71.0178 329° Northwest  Level Estimated
Tue 05:10:00 AM 12.0921 -71.0849 329° Northwest  Level Estimated
Tue 05:11:00 AM 12.2011 -71.1520 329° Northwest  Level Estimated
Tue 05:12:00 AM 12.3102 -71.2192 329° Northwest  Level Estimated
Tue 05:13:00 AM 12.4192 -71.2865 329° Northwest  Level Estimated
Tue 05:14:00 AM 12.5282 -71.3538 329° Northwest  Level Estimated
Tue 05:15:00 AM 12.6372 -71.4212 329° Northwest  Level Estimated
Tue 05:16:00 AM 12.7462 -71.4886 329° Northwest  Level Estimated
Tue 05:17:00 AM 12.8551 -71.5561 329° Northwest  Level Estimated
Tue 05:18:00 AM 12.9641 -71.6237 329° Northwest  Level Estimated
Tue 05:19:00 AM 13.0730 -71.6913 329° Northwest  Level Estimated
Tue 05:20:00 AM 13.1819 -71.7589 329° Northwest  Level Estimated
Tue 05:21:00 AM 13.2907 -71.8267 329° Northwest  Level Estimated
Tue 05:22:00 AM 13.3996 -71.8945 329° Northwest  Level Estimated
Tue 05:23:00 AM 13.5085 -71.9623 329° Northwest  Level Estimated
Tue 05:24:00 AM 13.6173 -72.0302 329° Northwest  Level Estimated
Tue 05:25:00 AM 13.7261 -72.0982 329° Northwest  Level Estimated
Tue 05:26:00 AM 13.8349 -72.1663 329° Northwest  Level Estimated
Tue 05:27:00 AM 13.9437 -72.2344 329° Northwest  Level Estimated
Tue 05:28:00 AM 14.0524 -72.3025 329° Northwest  Level Estimated
Tue 05:29:00 AM 14.1612 -72.3708 329° Northwest  Level Estimated
Tue 05:30:00 AM 14.2699 -72.4391 329° Northwest  Level Estimated
Tue 05:31:00 AM 14.3786 -72.5074 329° Northwest  Level Estimated
Tue 05:32:00 AM 14.4873 -72.5759 329° Northwest  Level Estimated
Tue 05:33:00 AM 14.5959 -72.6443 329° Northwest  Level Estimated
Tue 05:34:00 AM 14.7046 -72.7129 329° Northwest  Level Estimated
Tue 05:35:00 AM 14.8132 -72.7815 329° Northwest  Level Estimated
Tue 05:36:00 AM 14.9218 -72.8503 329° Northwest  Level Estimated
Tue 05:37:00 AM 15.0304 -72.9190 329° Northwest  Level Estimated
Tue 05:38:00 AM 15.1389 -72.9879 329° Northwest  Level Estimated
Tue 05:39:00 AM 15.2474 -73.0568 329° Northwest  Level Estimated
Tue 05:40:00 AM 15.3560 -73.1257 328° Northwest  Level Estimated
Tue 05:41:00 AM 15.4644 -73.1948 328° Northwest  Level Estimated
Tue 05:42:00 AM 15.5729 -73.2639 328° Northwest  Level Estimated
Tue 05:43:00 AM 15.6814 -73.3331 328° Northwest  Level Estimated
Tue 05:44:00 AM 15.7898 -73.4024 328° Northwest  Level Estimated
Tue 05:45:00 AM 15.8982 -73.4718 328° Northwest  Level Estimated
Tue 05:46:00 AM 16.0066 -73.5412 328° Northwest  Level Estimated
Tue 05:47:00 AM 16.1149 -73.6107 328° Northwest  Level Estimated
Tue 05:48:00 AM 16.2233 -73.6803 328° Northwest  Level Estimated
Tue 05:49:00 AM 16.3316 -73.7499 328° Northwest  Level Estimated
Tue 05:50:00 AM 16.4399 -73.8196 328° Northwest  Level Estimated
Tue 05:51:00 AM 16.5482 -73.8895 328° Northwest  Level Estimated
Tue 05:52:00 AM 16.6564 -73.9594 328° Northwest  Level Estimated
Tue 05:53:00 AM 16.7646 -74.0293 328° Northwest  Level Estimated
Tue 05:54:00 AM 16.8728 -74.0993 328° Northwest  Level Estimated
Tue 05:55:00 AM 16.9810 -74.1695 328° Northwest  Level Estimated
Tue 05:56:00 AM 17.0892 -74.2397 328° Northwest  Level Estimated
Tue 05:57:00 AM 17.1973 -74.3100 328° Northwest  Level Estimated
Tue 05:58:00 AM 17.3054 -74.3803 328° Northwest  Level Estimated
Tue 05:59:00 AM 17.4135 -74.4508 328° Northwest  Level Estimated
Tue 06:00:00 AM 17.5215 -74.5213 328° Northwest  Level Estimated
Tue 06:01:00 AM 17.6296 -74.5919 328° Northwest  Level Estimated
Tue 06:02:00 AM 17.7376 -74.6627 328° Northwest  Level Estimated
Tue 06:03:00 AM 17.8455 -74.7334 328° Northwest  Level Estimated
Tue 06:04:00 AM 17.9535 -74.8043 328° Northwest  Level Estimated
Tue 06:05:00 AM 18.0614 -74.8753 328° Northwest  Level Estimated
Tue 06:06:00 AM 18.1693 -74.9463 328° Northwest  Level Estimated
Tue 06:07:00 AM 18.2772 -75.0175 328° Northwest  Level Estimated
Tue 06:08:00 AM 18.3850 -75.0887 328° Northwest  Level Estimated
Tue 06:09:00 AM 18.4928 -75.1600 328° Northwest  Level Estimated
Tue 06:10:00 AM 18.6007 -75.2314 328° Northwest  Level Estimated
Tue 06:11:00 AM 18.7084 -75.3029 328° Northwest  Level Estimated
Tue 06:12:00 AM 18.8162 -75.3745 328° Northwest  Level Estimated
Tue 06:13:00 AM 18.9239 -75.4462 328° Northwest  Level Estimated
Tue 06:14:00 AM 19.0316 -75.5179 328° Northwest  Level Estimated
Tue 06:15:00 AM 19.1392 -75.5898 328° Northwest  Level Estimated
Tue 06:16:00 AM 19.2468 -75.6618 328° Northwest  Level Estimated
Tue 06:17:00 AM 19.3545 -75.7338 328° Northwest  Level Estimated
Tue 06:18:00 AM 19.4620 -75.8060 328° Northwest  Level Estimated
Tue 06:19:00 AM 19.5696 -75.8782 328° Northwest  Level Estimated
Tue 06:20:00 AM 19.6771 -75.9505 328° Northwest  Level Estimated
Tue 06:21:00 AM 19.7846 -76.0230 328° Northwest  Level Estimated
Tue 06:22:00 AM 19.8920 -76.0955 328° Northwest  Level Estimated
Tue 06:23:00 AM 19.9995 -76.1681 328° Northwest  Level Estimated
Tue 06:24:00 AM 20.1069 -76.2409 328° Northwest  Level Estimated
Tue 06:25:00 AM 20.2142 -76.3137 328° Northwest  Level Estimated
Tue 06:26:00 AM 20.3216 -76.3866 327° Northwest  Level Estimated
Tue 06:27:00 AM 20.4289 -76.4597 327° Northwest  Level Estimated
Tue 06:28:00 AM 20.5362 -76.5328 327° Northwest  Level Estimated
Tue 06:29:00 AM 20.6434 -76.6060 327° Northwest  Level Estimated
Tue 06:30:00 AM 20.7506 -76.6794 327° Northwest  Level Estimated
Tue 06:31:00 AM 20.8578 -76.7528 327° Northwest  Level Estimated
Tue 06:32:00 AM 20.9650 -76.8264 327° Northwest  Level Estimated
Tue 06:32:31 AM 22.8094 -77.7153 327° Northwest 477 549 36,000  Level Miami Center
Tue 06:33:00 AM 21.0717 -76.8997 327° Northwest  Level Estimated
Tue 06:33:31 AM 22.9031 -77.7836 326° Northwest 461 531 36,000  Level Miami Center
Tue 06:34:00 AM 21.1783 -76.9732 327° Northwest  Level Estimated
Tue 06:34:31 AM 23.0133 -77.8475 332° Northwest 446 513 36,000  Level Miami Center
Tue 06:35:00 AM 21.2850 -77.0468 327° Northwest  Level Estimated
Tue 06:35:31 AM 23.1175 -77.9072 332° Northwest 441 507 36,000  Level Miami Center
Tue 06:36:00 AM 21.3915 -77.1204 327° Northwest  Level Estimated
Tue 06:36:31 AM 23.2214 -77.9758 329° Northwest 436 502 36,000  Level Miami Center
Tue 06:37:00 AM 21.4981 -77.1942 327° Northwest  Level Estimated
Tue 06:37:31 AM 23.3275 -78.0400 331° Northwest 436 502 36,000  Level Miami Center
Tue 06:38:00 AM 21.6046 -77.2681 327° Northwest  Level Estimated
Tue 06:38:31 AM 23.4356 -78.1111 329° Northwest 442 509 36,000  Level Miami Center
Tue 06:39:31 AM 23.5353 -78.1711 331° Northwest 436 502 36,000  Level Miami Center
Tue 06:40:31 AM 23.6433 -78.2403 330° Northwest 442 509 36,000  Level Miami Center
Tue 06:46:27 AM 24.2610 -78.6610 330° Northwest 432 497 36,000 -15 Level FlightAware ADS-B
Tue 06:47:02 AM 24.3150 -78.7030 325° Northwest 423 487 35,900 -695 Descending FlightAware ADS-B
Tue 06:48:02 AM 24.4070 -78.7760 324° Northwest 412 474 34,900 -1,636 Descending FlightAware ADS-B
Tue 06:48:52 AM 24.4830 -78.8360 324° Northwest 409 471 32,900 -1,333 Descending FlightAware ADS-B
Tue 06:49:32 AM 24.5350 -78.8770 324° Northwest 409 471 32,900  Level FlightAware ADS-B
Tue 06:50:12 AM 24.5870 -78.9190 324° Northwest 409 471 32,900 -2,436 Level FlightAware ADS-B
Tue 06:50:47 AM 24.6580 -78.9720 326° Northwest 28,400 -3,216 Descending FlightAware ADS-B
Tue 06:52:17 AM 24.7810 -79.0690 324° Northwest 363 418 26,200 -1,527 Descending FlightAware ADS-B
Tue 06:53:32 AM 24.8800 -79.1470 324° Northwest 359 413 24,200 -1,655 Descending FlightAware ADS-B
Tue 06:54:42 AM 24.9690 -79.2290 320° Northwest 353 406 22,200 -1,680 Descending FlightAware ADS-B
Tue 06:56:02 AM 25.0610 -79.3380 313° West 360 414 20,000 -1,385 Descending FlightAware ADS-B
Tue 06:56:52 AM 25.1160 -79.4030 313° West 359 413 19,200 -1,733 Descending FlightAware ADS-B
Tue 06:57:32 AM 25.1610 -79.4560 313° West 358 412 17,400 -2,133 Descending FlightAware ADS-B
Tue 06:58:22 AM 25.2170 -79.5220 313° West 353 406 16,000 -1,536 Descending FlightAware ADS-B
Tue 06:59:37 AM 25.2970 -79.6160 313° West 340 391 14,200 -1,459 Descending FlightAware ADS-B
Tue 07:00:32 AM 25.3610 -79.6910 313° West 12,600 -1,473 Descending FlightAware ADS-B
Tue 07:01:27 AM 25.4160 -79.7640 310° West 324 373 11,500 -1,011 Descending FlightAware ADS-B
Tue 07:02:07 AM 25.4530 -79.8210 306° West 325 374 11,000 -776 Descending FlightAware ADS-B
Tue 07:02:52 AM 25.4900 -79.8770 306° West 307 353 10,400 -800 Descending FlightAware ADS-B
Tue 07:03:22 AM 25.5170 -79.9180 306° West 289 333 10,000 -462 Descending FlightAware ADS-B
Tue 07:03:57 AM 25.5440 -79.9580 307° West 289 333 9,900 -92 Descending FlightAware ADS-B
Tue 07:04:27 AM 25.5690 -79.9970 305° West 290 334 9,900  Level FlightAware ADS-B
Tue 07:04:57 AM 25.5910 -80.0300 306° West 289 333 9,900  Level FlightAware ADS-B
Tue 07:05:22 AM 25.6110 -80.0610 306° West 289 333 9,900  Level FlightAware ADS-B
Tue 07:05:47 AM 25.6330 -80.0940 306° West 289 333 9,900 -133 Level FlightAware ADS-B
Tue 07:06:07 AM 25.6450 -80.1150 302° West 289 333 9,800 -933 Descending FlightAware ADS-B
Tue 07:06:32 AM 25.6550 -80.1540 286° West 289 333 9,200 -1,333 Descending FlightAware ADS-B
Tue 07:06:52 AM 25.6620 -80.1850 284° West 285 328 8,800 -1,200 Descending FlightAware ADS-B
Tue 07:07:27 AM 25.6730 -80.2330 284° West 280 322 8,100 -1,662 Descending FlightAware ADS-B
Tue 07:07:57 AM 25.6830 -80.2710 286° West 276 318 7,000 -2,400 Descending FlightAware ADS-B
Tue 07:08:27 AM 25.6920 -80.3140 283° West 275 316 5,700 -2,618 Descending FlightAware ADS-B
Tue 07:08:52 AM 25.7000 -80.3500 284° West 271 312 4,600 -2,400 Descending FlightAware ADS-B
Tue 07:09:02 AM 25.7040 -80.3640 288° West 274 315 4,300 -764 Descending FlightAware ADS-B
Tue 07:09:47 AM 25.7160 -80.4190 284° West 264 304 3,900 -320 Descending FlightAware ADS-B
Tue 07:10:17 AM 25.7250 -80.4600 284° West 234 269 3,900  Level FlightAware ADS-B
Tue 07:10:47 AM 25.7240 -80.4940 268° West 203 234 3,900  Level FlightAware ADS-B
Tue 07:11:07 AM 25.7190 -80.5140 254° West 190 219 3,900 -480 Level FlightAware ADS-B
Tue 07:11:37 AM 25.7300 -80.5350 300° West 179 206 3,500 -571 Descending FlightAware ADS-B
Tue 07:12:52 AM 25.7730 -80.4970 39° Northeast 172 198 2,900 -400 Descending FlightAware ADS-B
Tue 07:13:07 AM 25.7780 -80.4850 65° Northeast 171 197 2,900 -800 Level FlightAware ADS-B
Tue 07:13:52 AM 25.7810 -80.4430 85° East 169 194 2,100 -975 Descending FlightAware ADS-B
Tue 07:14:27 AM 25.7820 -80.4120 88° East 166 191 1,600 -831 Descending FlightAware ADS-B
Tue 07:14:57 AM 25.7830 -80.3900 87° East 166 191 1,200 -720 Descending FlightAware ADS-B
Tue 07:15:17 AM 25.7840 -80.3740 86° East 155 178 1,000 -800 Descending FlightAware ADS-B
Tue 07:15:57 AM 25.7850 -80.3400 88° East 153 176 400 -900 Descending FlightAware ADS-B

Login

Don't have an account? Register now (free) for customized features, flight alerts, and more!